Details From EGAC - Belfast City
To EGNH - Blackpool
Flight Number -
Tags Generated
Created
Modified
Stats Distance 112 nm / 207 km
Max Altitude 0 ft / 0 m
Waypoints 2
Social Downloads 2
Likes 0
Share VATSIM

Download

Looking for another format? Having issues loading an existing format? Contact us
Advertisement - Login to hide

Notes

Generated

Route

EGAC EGNH

ID Type Via Altitude Latitude Longitude Leg Dist Tot Dist Heading (true) Name
O EGAC APT - 0 ft / 0 m 54.61136˚ -5.88072˚ - 0 nm - -
O EGNH APT - 0 ft / 0 m 53.77237˚ -3.04133˚ 111 nm 111 nm 116° / 118° -

Altitude Profile

Advertisement - Login to hide

EGAC

Details ICAO EGAC (BHD)
Name Belfast City
Region United Kingdom
Timezone Europe/London (UTC+0.0)
Stats Elevation 15 ft / 5 m (AMSL)
Location 54.618108° -5.872575°
Runways 1
Magnetic Variation 3.091° W

METAR

EGAC 130850Z 23014G24KT 9999 -RA FEW018 SCT030 06/05 Q0989

Decode

TAF

Not found

Departure Runways

ID Width Length Bearing (true) Bearing (mag) Surface Threshold Offset Overrun Length
04 148 ft / 45 m 6,009 ft / 1,832 m 34.93° 38.02° Asphalt 302 ft / 92 m 0 ft / 0 m
22 148 ft / 45 m 6,009 ft / 1,832 m 214.94° 218.03° Asphalt 0 ft / 0 m 0 ft / 0 m

EGNH

Details ICAO EGNH (BLK)
Name Blackpool
Region United Kingdom
Timezone Europe/London (UTC+0.0)
Stats Elevation 34 ft / 10 m (AMSL)
Location 53.772383° -3.032609°
Runways 3
Magnetic Variation 1.812° W

METAR

EGNH 130850Z 23019KT 9999 BKN029 08/06 Q0992

Decode

TAF

Not found

Destination Runways

ID Width Length Bearing (true) Bearing (mag) Surface Threshold Offset Overrun Length
07 98 ft / 30 m 4,204 ft / 1,281 m 67.79° 69.60° Asphalt 262 ft / 80 m 0 ft / 0 m
10 151 ft / 46 m 6,112 ft / 1,863 m 94.65° 96.46° Asphalt 0 ft / 0 m 0 ft / 0 m
13 75 ft / 23 m 3,034 ft / 925 m 127.37° 129.18° Asphalt 0 ft / 0 m 0 ft / 0 m
25 98 ft / 30 m 4,204 ft / 1,281 m 247.81° 249.62° Asphalt 1,936 ft / 590 m 0 ft / 0 m
28 151 ft / 46 m 6,112 ft / 1,863 m 274.67° 276.48° Asphalt 0 ft / 0 m 0 ft / 0 m
31 75 ft / 23 m 3,034 ft / 925 m 307.38° 309.19° Asphalt 0 ft / 0 m 0 ft / 0 m

Approach Navaids

Runway Type Ident Frequency Range Bearing (true) Bearing (mag) Slope Elevation
28 Localiser IBPL 108.15 MHz 18 nm / 33 km 274.64° 276.46° - 55 ft / 17 m (AMSL)
28 Glidescope IBPL 108.15 MHz 10 nm / 19 km 274.66° 276.47° 3.00° 55 ft / 17 m (AMSL)